Terminal Aerodrome Forecast
Issued by NWS Cleveland, OH

Home | Current Version | Previous Version | Text Only | Print | Product List | Glossary On
Versions: 1 2 3 4 5 6 7 8 9 10 11 12 13 14 15 16 17 18 19
000
FTUS41 KCLE 241100
TAFCAK
TAF
KCAK 241124Z 2412/2512 01006KT P6SM SCT035
     FM241400 03008KT P6SM BKN035
     FM241900 01005KT P6SM SKC
     FM250100 VRB03KT P6SM SKC=

USA.gov is the U.S. government's official web portal to all federal, state and local government web resources and services.